createdAt,value
2019-03-13T00:04:27.370Z,16.07
2019-03-13T00:09:31.195Z,16.13
2019-03-13T00:14:32.826Z,17.97
2019-03-13T00:19:39.039Z,16.77
2019-03-13T00:24:42.788Z,20.57
2019-03-13T00:29:44.483Z,22.83
2019-03-13T00:34:46.143Z,11.90
2019-03-13T00:39:47.883Z,15.83
2019-03-13T00:44:49.483Z,23.17
2019-03-13T00:49:51.165Z,19.97
2019-03-13T00:54:52.766Z,16.17
2019-03-13T00:59:54.395Z,23.83
2019-03-13T01:05:11.608Z,19.33
2019-03-13T01:10:13.699Z,16.70
2019-03-13T01:15:17.418Z,15.80
2019-03-13T01:20:21.190Z,16.93
2019-03-13T01:25:22.963Z,23.10
2019-03-13T01:30:29.427Z,18.33
2019-03-13T01:35:43.583Z,27.03
2019-03-13T01:40:45.218Z,20.97
2019-03-13T01:45:46.824Z,28.47
2019-03-13T01:50:49.706Z,24.10
2019-03-13T01:55:51.365Z,28.33
2019-03-13T02:00:52.999Z,18.73
2019-03-13T02:05:58.138Z,22.57
2019-03-13T02:10:59.817Z,23.07
2019-03-13T02:16:01.447Z,16.40
2019-03-13T02:21:08.064Z,17.47
2019-03-13T02:26:09.800Z,25.57
2019-03-13T02:31:13.423Z,25.17
2019-03-13T02:36:16.510Z,26.23
2019-03-13T02:41:18.170Z,33.47
2019-03-13T02:46:19.827Z,25.87
2019-03-13T02:51:21.482Z,32.97
2019-03-13T02:56:24.885Z,27.80
2019-03-13T03:01:44.680Z,36.73
2019-03-13T03:06:46.308Z,31.53
2019-03-13T03:11:51.079Z,30.63
2019-03-13T03:16:52.712Z,45.17
2019-03-13T03:21:54.398Z,28.33
2019-03-13T03:26:56.357Z,40.40
2019-03-13T03:31:58.072Z,37.17
2019-03-13T03:36:59.837Z,37.00
2019-03-13T03:42:03.965Z,38.37
2019-03-13T03:47:08.493Z,32.43
2019-03-13T03:52:10.081Z,29.80
2019-03-13T03:57:14.029Z,33.33
2019-03-13T04:02:15.987Z,32.10
2019-03-13T04:07:17.681Z,31.07
2019-03-13T04:12:19.471Z,41.50
2019-03-13T04:17:22.682Z,38.17
2019-03-13T04:22:25.348Z,34.30
2019-03-13T04:27:29.490Z,36.43
2019-03-13T04:32:32.979Z,32.77
2019-03-13T04:37:34.592Z,34.70
2019-03-13T04:42:36.225Z,39.20
2019-03-13T04:47:37.918Z,41.73
2019-03-13T04:52:39.622Z,31.50
2019-03-13T04:57:42.962Z,39.53
2019-03-13T05:02:47.738Z,31.90
2019-03-13T05:07:51.077Z,43.27
2019-03-13T05:12:52.763Z,42.20
2019-03-13T05:17:54.529Z,40.67
2019-03-13T05:22:56.154Z,38.83
2019-03-13T05:27:59.744Z,40.60
2019-03-13T05:33:01.374Z,38.03
2019-03-13T05:38:05.301Z,41.87
2019-03-13T05:43:11.459Z,44.57
2019-03-13T05:48:15.545Z,35.93
2019-03-13T05:53:19.692Z,47.07
2019-03-13T05:58:21.275Z,39.13
2019-03-13T06:03:22.880Z,43.03
2019-03-13T06:08:24.506Z,32.67
2019-03-13T06:13:28.152Z,34.53
2019-03-13T06:18:30.589Z,39.07
2019-03-13T06:23:32.986Z,35.80
2019-03-13T06:28:37.383Z,37.77
2019-03-13T06:33:39.134Z,46.77
2019-03-13T06:38:41.612Z,36.27
2019-03-13T06:43:43.269Z,36.20
2019-03-13T06:48:46.111Z,40.10
2019-03-13T06:53:49.596Z,48.00
2019-03-13T06:59:00.682Z,35.30
2019-03-13T07:04:21.138Z,46.17
2019-03-13T07:09:47.639Z,39.13
2019-03-13T07:15:01.028Z,37.67
2019-03-13T07:20:13.472Z,46.37
2019-03-13T07:25:22.273Z,34.00
2019-03-13T07:30:42.167Z,35.40
2019-03-13T07:35:53.419Z,30.17
2019-03-13T07:41:12.331Z,35.27
2019-03-13T07:46:31.799Z,27.30
2019-03-13T07:51:55.657Z,31.43
2019-03-13T07:57:13.468Z,35.87
2019-03-13T08:02:34.626Z,33.40
2019-03-13T08:07:48.050Z,39.70
2019-03-13T08:13:10.319Z,49.33
2019-03-13T08:18:31.535Z,38.33
2019-03-13T08:23:44.662Z,49.10
2019-03-13T08:29:08.306Z,42.30
2019-03-13T08:34:37.765Z,39.33
2019-03-13T08:39:54.414Z,39.97
2019-03-13T08:45:23.394Z,44.50
2019-03-13T08:50:51.102Z,40.93
2019-03-13T08:55:59.938Z,37.53
2019-03-13T09:01:24.218Z,31.83
2019-03-13T09:06:31.856Z,34.97
2019-03-13T09:11:52.957Z,54.57
2019-03-13T09:17:19.831Z,39.23
2019-03-13T09:22:42.378Z,39.90
2019-03-13T09:28:03.491Z,35.67
2019-03-13T09:33:19.968Z,30.63
2019-03-13T09:38:30.758Z,34.67
2019-03-13T09:43:47.603Z,43.57
2019-03-13T09:49:23.411Z,47.77
2019-03-13T09:54:53.507Z,46.67
2019-03-13T10:00:17.363Z,36.73
2019-03-13T10:05:36.576Z,40.10
2019-03-13T10:10:45.933Z,28.23
2019-03-13T10:16:00.493Z,30.97
2019-03-13T10:21:13.429Z,30.33
2019-03-13T10:26:37.329Z,33.77
2019-03-13T10:32:13.189Z,35.67
2019-03-13T10:37:37.070Z,37.50
2019-03-13T10:43:00.939Z,32.27
2019-03-13T10:48:10.178Z,42.40
2019-03-13T10:53:37.509Z,30.23
2019-03-13T10:58:58.613Z,43.17
2019-03-13T11:04:07.448Z,32.30
2019-03-13T11:09:17.391Z,26.97
2019-03-13T11:14:42.116Z,41.83
2019-03-13T11:19:50.922Z,34.13
2019-03-13T11:25:00.496Z,37.17
2019-03-13T11:30:20.837Z,42.60
2019-03-13T11:35:46.530Z,37.27
2019-03-13T11:41:18.609Z,42.60
2019-03-13T11:46:42.586Z,36.43
2019-03-13T11:52:07.965Z,31.80
2019-03-13T11:57:31.663Z,36.17
2019-03-13T12:02:51.523Z,38.10
2019-03-13T12:08:15.781Z,36.97
2019-03-13T12:13:33.736Z,33.10
2019-03-13T12:18:57.081Z,26.40
2019-03-13T12:24:16.753Z,40.33
2019-03-13T12:29:29.318Z,21.03
2019-03-13T12:34:58.273Z,34.27
2019-03-13T12:40:22.294Z,29.10
2019-03-13T12:45:43.553Z,39.40
2019-03-13T12:50:59.570Z,32.63
2019-03-13T12:56:07.682Z,28.80
2019-03-13T13:01:23.000Z,28.93
2019-03-13T13:06:44.254Z,31.10
2019-03-13T13:12:05.383Z,35.10
2019-03-13T13:17:25.236Z,33.27
2019-03-13T13:22:31.227Z,33.27
2019-03-13T13:27:32.929Z,30.70
2019-03-13T13:32:34.621Z,27.90
2019-03-13T13:37:37.457Z,31.83
2019-03-13T13:42:39.062Z,15.93
2019-03-13T13:47:46.796Z,26.47
2019-03-13T13:52:48.498Z,33.03
2019-03-13T13:57:50.161Z,26.90
2019-03-13T14:02:54.731Z,22.13
2019-03-13T14:07:57.470Z,15.17
2019-03-13T14:13:00.867Z,27.67
2019-03-13T14:18:02.473Z,28.17
2019-03-13T14:23:04.339Z,26.30
2019-03-13T14:28:06.087Z,22.50
2019-03-13T14:33:07.732Z,26.20
2019-03-13T14:38:09.505Z,24.10
2019-03-13T14:43:11.094Z,27.03
2019-03-13T14:48:13.552Z,29.27
2019-03-13T14:53:15.327Z,22.93
2019-03-13T14:58:18.895Z,23.33
2019-03-13T15:03:20.615Z,35.07
2019-03-13T15:08:22.275Z,27.53
2019-03-13T15:13:24.121Z,24.80
2019-03-13T15:18:27.796Z,30.37
2019-03-13T15:23:29.489Z,38.93
2019-03-13T15:28:31.078Z,22.97
2019-03-13T15:33:32.754Z,33.20
2019-03-13T15:38:34.453Z,30.30
2019-03-13T15:43:38.942Z,35.37
2019-03-13T15:48:40.521Z,30.50
2019-03-13T15:53:42.165Z,34.47
2019-03-13T15:58:46.722Z,32.23
2019-03-13T16:03:49.814Z,31.37
2019-03-13T16:08:51.502Z,31.40
2019-03-13T16:13:54.549Z,35.87
2019-03-13T16:18:56.316Z,25.27
2019-03-13T16:23:57.929Z,32.97
2019-03-13T16:28:59.590Z,27.17
2019-03-13T16:34:01.227Z,31.10
2019-03-13T16:39:04.798Z,39.63
2019-03-13T16:44:06.386Z,39.93
2019-03-13T16:49:08.067Z,33.63
2019-03-13T16:54:09.687Z,25.90
2019-03-13T16:59:11.294Z,30.00
2019-03-13T17:04:13.106Z,32.87
2019-03-13T17:09:14.753Z,31.73
2019-03-13T17:14:21.136Z,38.83
2019-03-13T17:19:22.751Z,30.27
2019-03-13T17:24:25.923Z,36.03
2019-03-13T17:29:27.631Z,26.00
2019-03-13T17:34:30.491Z,28.93
2019-03-13T17:39:34.239Z,30.13
2019-03-13T17:44:35.826Z,30.43
2019-03-13T17:49:37.677Z,26.97
2019-03-13T17:54:40.002Z,25.63
2019-03-13T17:59:43.678Z,32.27
2019-03-13T18:04:46.258Z,37.30
2019-03-13T18:09:47.952Z,32.67
2019-03-13T18:14:52.813Z,34.47
2019-03-13T18:19:54.802Z,34.83
2019-03-13T18:24:56.492Z,29.13
2019-03-13T18:30:00.483Z,26.30
2019-03-13T18:35:03.581Z,27.97
2019-03-13T18:40:05.198Z,29.77
2019-03-13T18:45:10.311Z,40.17
2019-03-13T18:50:12.040Z,29.20
2019-03-13T18:55:15.560Z,30.43
2019-03-13T19:00:23.383Z,26.37
2019-03-13T19:05:28.222Z,33.80
2019-03-13T19:10:29.850Z,38.53
2019-03-13T19:15:34.408Z,32.77
2019-03-13T19:20:36.104Z,37.37
2019-03-13T19:25:39.395Z,35.63
2019-03-13T19:30:43.135Z,35.43
2019-03-13T19:35:44.806Z,29.97
2019-03-13T19:40:49.334Z,23.93
2019-03-13T19:45:50.929Z,28.90
2019-03-13T19:50:52.612Z,27.57
2019-03-13T19:55:55.377Z,26.30
2019-03-13T20:00:57.014Z,21.10
2019-03-13T20:05:58.649Z,23.80
2019-03-13T20:11:04.375Z,26.80
2019-03-13T20:16:10.573Z,30.33
2019-03-13T20:21:14.258Z,29.00
2019-03-13T20:26:17.183Z,31.70
2019-03-13T20:31:21.727Z,30.43
2019-03-13T20:36:25.624Z,33.10
2019-03-13T20:41:34.574Z,32.80
2019-03-13T20:46:37.551Z,32.93
2019-03-13T20:51:40.440Z,38.13
2019-03-13T20:56:42.023Z,30.23
2019-03-13T21:01:43.614Z,30.13
2019-03-13T21:06:48.028Z,36.40
2019-03-13T21:11:52.015Z,32.70
2019-03-13T21:16:55.025Z,37.47
2019-03-13T21:21:57.998Z,29.87
2019-03-13T21:27:02.356Z,37.00
2019-03-13T21:32:04.046Z,47.17
2019-03-13T21:37:05.671Z,31.10
2019-03-13T21:42:07.328Z,31.93
2019-03-13T21:47:08.990Z,30.57
2019-03-13T21:52:10.667Z,45.87
2019-03-13T21:57:14.287Z,40.70
2019-03-13T22:02:15.906Z,42.17
2019-03-13T22:07:20.413Z,46.57
2019-03-13T22:12:22.137Z,45.27
2019-03-13T22:17:23.767Z,42.17
2019-03-13T22:22:26.477Z,50.60
2019-03-13T22:27:28.434Z,35.27
2019-03-13T22:32:33.245Z,43.10
2019-03-13T22:37:36.510Z,35.57
2019-03-13T22:42:38.408Z,49.40
2019-03-13T22:47:43.288Z,42.90
2019-03-13T22:52:46.525Z,33.70
2019-03-13T22:57:48.162Z,35.43
2019-03-13T23:02:55.849Z,35.07
2019-03-13T23:07:57.446Z,38.17
2019-03-13T23:12:59.077Z,41.20
2019-03-13T23:18:00.775Z,34.47
2019-03-13T23:23:02.677Z,29.77
2019-03-13T23:28:04.723Z,24.47
2019-03-13T23:33:09.516Z,30.43
2019-03-13T23:38:13.072Z,32.53
2019-03-13T23:43:14.698Z,28.03
2019-03-13T23:48:16.286Z,25.43
2019-03-13T23:53:20.213Z,28.77
2019-03-13T23:58:21.783Z,29.57
